Time;durP1;ratioP1;P1;durP2;ratioP2;P2;SDS_P1;SDS_P2;PMS_P1;PMS_P2;Temp;Humidity;BMP_temperature;BMP_pressure;BME280_temperature;BME280_humidity;BME280_pressure;Samples;Min_cycle;Max_cycle;Signal;HPM_P1;HPM_P2
2023/01/07 00:01:27;;;;;;;9.75;8.85;;;8.40;99.90;;;;;;5011786;28;20185;-76
2023/01/07 00:03:54;;;;;;;9.55;8.68;;;8.40;99.90;;;;;;5014264;28;20564;-76
2023/01/07 00:06:25;;;;;;;11.45;9.63;;;8.50;99.90;;;;;;5014274;28;20189;-76
2023/01/07 00:08:52;;;;;;;9.45;8.55;;;8.50;99.90;;;;;;5015406;28;20205;-77
2023/01/07 00:11:25;;;;;;;9.63;8.73;;;8.50;99.90;;;;;;5012285;28;20185;-76
2023/01/07 00:13:53;;;;;;;9.05;8.15;;;8.50;99.90;;;;;;5017820;28;20292;-76
2023/01/07 00:16:20;;;;;;;10.48;8.82;;;8.50;99.90;;;;;;5015368;28;20189;-76
2023/01/07 00:18:47;;;;;;;9.38;8.48;;;8.50;99.90;;;;;;5018113;28;20256;-76
2023/01/07 00:21:15;;;;;;;10.45;9.45;;;8.50;99.90;;;;;;5015883;28;20613;-76
2023/01/07 00:23:42;;;;;;;9.75;8.85;;;8.50;99.90;;;;;;5011888;28;20236;-76
2023/01/07 00:26:11;;;;;;;8.88;7.97;;;8.50;99.90;;;;;;5016402;28;20208;-77
2023/01/07 00:28:39;;;;;;;9.02;8.05;;;8.50;99.90;;;;;;5014487;28;20268;-77
2023/01/07 00:31:07;;;;;;;10.05;9.15;;;8.40;99.90;;;;;;5017209;28;20190;-77
2023/01/07 00:33:42;;;;;;;9.85;8.95;;;8.50;99.90;;;;;;5016247;28;20212;-76
2023/01/07 00:36:09;;;;;;;9.95;9.00;;;8.50;99.90;;;;;;5014110;28;20234;-76
2023/01/07 00:38:36;;;;;;;9.15;8.25;;;8.40;99.90;;;;;;5013382;28;20177;-76
2023/01/07 00:41:02;;;;;;;10.45;9.45;;;8.50;99.90;;;;;;5017347;28;20181;-77
2023/01/07 00:43:28;;;;;;;10.90;9.85;;;8.50;99.90;;;;;;5016591;28;20236;-76
2023/01/07 00:45:54;;;;;;;10.70;9.73;;;8.40;99.90;;;;;;5014356;28;21215;-76
2023/01/07 00:48:20;;;;;;;11.05;9.95;;;8.40;99.90;;;;;;5013888;28;20239;-77
2023/01/07 00:50:47;;;;;;;12.25;10.68;;;8.40;99.90;;;;;;5015395;28;20184;-75
2023/01/07 00:53:13;;;;;;;11.20;10.10;;;8.30;99.90;;;;;;5014838;28;20212;-75
2023/01/07 00:55:39;;;;;;;10.55;9.45;;;8.30;99.90;;;;;;5014892;28;20173;-75
2023/01/07 00:58:05;;;;;;;10.43;9.45;;;8.40;99.90;;;;;;5014951;28;20558;-77
2023/01/07 01:00:31;;;;;;;11.50;10.38;;;8.40;99.90;;;;;;5014042;28;20676;-77
2023/01/07 01:02:58;;;;;;;11.63;10.30;;;8.40;99.90;;;;;;5019714;28;20208;-78
2023/01/07 01:05:24;;;;;;;10.98;9.98;;;8.30;99.90;;;;;;5013182;28;20614;-77
2023/01/07 01:07:50;;;;;;;11.20;10.00;;;8.30;99.90;;;;;;5016910;28;20516;-77
2023/01/07 01:10:18;;;;;;;10.15;9.15;;;8.30;99.90;;;;;;5011711;28;20204;-77
2023/01/07 01:12:44;;;;;;;12.00;10.27;;;8.40;99.90;;;;;;5018349;28;20224;-75
2023/01/07 01:15:12;;;;;;;10.75;9.75;;;8.30;99.90;;;;;;5020870;28;20204;-76
2023/01/07 01:17:39;;;;;;;10.77;9.70;;;8.30;99.90;;;;;;5022149;28;20192;-75
2023/01/07 01:20:06;;;;;;;11.77;9.60;;;8.40;99.90;;;;;;5020480;28;20643;-76
2023/01/07 01:22:32;;;;;;;11.35;10.23;;;8.40;99.90;;;;;;5016232;28;20244;-76
2023/01/07 01:24:58;;;;;;;11.35;10.20;;;8.30;99.90;;;;;;5016944;28;20498;-76
2023/01/07 01:27:23;;;;;;;10.88;9.85;;;8.30;99.90;;;;;;5020916;28;20615;-76
2023/01/07 01:29:49;;;;;;;10.10;9.13;;;8.30;99.90;;;;;;5017730;28;20576;-77
2023/01/07 01:32:14;;;;;;;10.65;9.65;;;8.40;99.90;;;;;;5017047;28;20236;-76
2023/01/07 01:34:40;;;;;;;11.32;10.23;;;8.40;99.90;;;;;;5019082;28;20201;-76
2023/01/07 01:37:06;;;;;;;13.27;10.48;;;8.40;99.90;;;;;;5019548;28;20243;-76
2023/01/07 01:39:31;;;;;;;10.57;9.55;;;8.30;99.90;;;;;;5020110;28;20180;-76
2023/01/07 01:41:57;;;;;;;12.38;10.13;;;8.40;99.90;;;;;;5015315;28;20308;-76
2023/01/07 01:44:45;;;;;;;18.27;10.80;;;8.40;99.90;;;;;;5014125;28;20201;-77
2023/01/07 01:47:32;;;;;;;9.30;8.40;;;8.40;99.90;;;;;;5018817;28;20188;-77
2023/01/07 01:50:17;;;;;;;11.07;9.60;;;8.40;99.90;;;;;;5021944;28;20177;-75
2023/01/07 01:52:55;;;;;;;10.30;9.05;;;8.40;99.90;;;;;;5013635;28;20201;-75
2023/01/07 01:55:27;;;;;;;11.07;9.98;;;8.40;99.90;;;;;;5015599;28;20212;-76
2023/01/07 01:57:57;;;;;;;13.15;10.98;;;8.40;99.90;;;;;;5020195;28;20177;-76
2023/01/07 02:00:22;;;;;;;10.60;9.57;;;8.40;99.90;;;;;;5015834;28;20216;-76
2023/01/07 02:02:53;;;;;;;10.82;9.73;;;8.40;99.90;;;;;;5019675;28;20229;-75
2023/01/07 02:05:20;;;;;;;12.77;10.35;;;8.40;99.90;;;;;;5016118;28;20193;-75
2023/01/07 02:07:45;;;;;;;11.95;10.80;;;8.30;99.90;;;;;;5013926;28;20181;-75
2023/01/07 02:10:18;;;;;;;12.07;10.80;;;8.20;99.90;;;;;;5018545;28;20870;-77
2023/01/07 02:13:30;;;;;;;11.52;10.43;;;8.20;99.90;;;;;;5020281;28;21186;-76
2023/01/07 02:16:10;;;;;;;11.65;10.35;;;8.20;99.90;;;;;;5031453;28;20578;-77
2023/01/07 02:18:35;;;;;;;11.45;10.32;;;8.20;99.90;;;;;;5035498;28;20706;-76
2023/01/07 02:21:04;;;;;;;12.15;10.95;;;8.30;99.90;;;;;;5023756;28;20193;-76
2023/01/07 02:24:08;;;;;;;12.30;10.27;;;8.30;99.90;;;;;;5017040;28;20649;-76
2023/01/07 02:26:59;;;;;;;11.90;10.70;;;8.30;99.90;;;;;;5015271;28;20196;-76
2023/01/07 02:29:46;;;;;;;11.98;10.77;;;8.30;99.90;;;;;;5012424;28;20589;-76
2023/01/07 02:32:30;;;;;;;11.95;10.73;;;8.20;99.90;;;;;;5014625;28;20208;-76
2023/01/07 02:35:21;;;;;;;12.05;10.95;;;8.20;99.90;;;;;;5013492;28;20254;-76
2023/01/07 02:38:09;;;;;;;13.82;10.93;;;8.20;99.90;;;;;;5015580;28;20177;-77
2023/01/07 02:40:57;;;;;;;11.43;10.32;;;8.20;99.90;;;;;;5011125;28;20538;-76
2023/01/07 02:43:28;;;;;;;10.60;9.60;;;8.20;99.90;;;;;;5011760;28;20197;-76
2023/01/07 02:46:05;;;;;;;10.80;9.75;;;8.30;99.90;;;;;;5026136;28;20189;-76
2023/01/07 02:48:32;;;;;;;11.55;9.50;;;8.30;99.90;;;;;;5012356;28;20193;-76
2023/01/07 02:50:58;;;;;;;10.90;9.80;;;8.40;99.90;;;;;;5011479;28;20200;-76
2023/01/07 02:53:24;;;;;;;9.93;9.02;;;8.40;99.90;;;;;;5013047;28;20587;-74
2023/01/07 02:56:27;;;;;;;12.00;10.73;;;8.40;99.90;;;;;;5017854;28;20184;-75
2023/01/07 02:59:31;;;;;;;10.90;9.90;;;8.30;99.90;;;;;;5011467;28;20189;-76
2023/01/07 03:02:24;;;;;;;12.70;10.85;;;8.30;99.90;;;;;;5017596;28;20258;-76
2023/01/07 03:05:05;;;;;;;10.27;9.20;;;8.30;99.90;;;;;;4973174;28;1097005;-74
2023/01/07 03:08:00;;;;;;;12.82;10.05;;;8.40;99.90;;;;;;5015573;28;20262;-74
2023/01/07 03:10:35;;;;;;;11.98;10.77;;;8.30;99.90;;;;;;5014946;28;20235;-75
2023/01/07 03:13:10;;;;;;;13.35;10.43;;;8.30;99.90;;;;;;5014795;28;20228;-75
2023/01/07 03:15:43;;;;;;;10.90;9.90;;;8.30;99.90;;;;;;5016747;28;20176;-75
2023/01/07 03:18:21;;;;;;;12.25;10.95;;;8.30;99.90;;;;;;5015238;28;20176;-76
2023/01/07 03:20:49;;;;;;;10.98;9.98;;;8.20;99.90;;;;;;5017740;28;20184;-76
2023/01/07 03:23:20;;;;;;;11.20;10.07;;;8.20;99.90;;;;;;5014003;28;20197;-75
2023/01/07 03:25:48;;;;;;;11.95;10.73;;;8.20;99.90;;;;;;5013819;28;20197;-76
2023/01/07 03:28:18;;;;;;;12.15;10.55;;;8.20;99.90;;;;;;5014738;28;20249;-76
2023/01/07 03:30:45;;;;;;;12.75;10.63;;;8.20;99.90;;;;;;5014320;28;20206;-76
2023/01/07 03:33:12;;;;;;;11.40;10.30;;;8.10;99.90;;;;;;5015335;28;20299;-76
2023/01/07 03:35:41;;;;;;;13.73;10.82;;;8.10;99.90;;;;;;5017010;28;20176;-76
2023/01/07 03:38:08;;;;;;;10.90;9.90;;;8.00;99.90;;;;;;5017773;28;20195;-76
2023/01/07 03:40:34;;;;;;;11.88;10.68;;;8.00;99.90;;;;;;5015561;28;20271;-77
2023/01/07 03:42:59;;;;;;;11.75;10.52;;;8.10;99.90;;;;;;5014741;28;20288;-77
2023/01/07 03:45:26;;;;;;;11.80;10.60;;;8.10;99.90;;;;;;5013416;28;21385;-76
2023/01/07 03:47:54;;;;;;;11.93;10.73;;;8.10;99.90;;;;;;5013441;28;20184;-77
2023/01/07 03:50:21;;;;;;;12.88;11.65;;;8.10;99.90;;;;;;5016034;28;20172;-76
2023/01/07 03:52:49;;;;;;;12.05;10.85;;;8.10;99.90;;;;;;5015588;28;20197;-76
2023/01/07 03:55:16;;;;;;;11.20;10.07;;;8.10;99.90;;;;;;5012205;28;20213;-76
2023/01/07 03:57:42;;;;;;;12.05;10.93;;;8.20;99.90;;;;;;5012019;28;20311;-75
2023/01/07 04:00:09;;;;;;;13.55;11.38;;;8.20;99.90;;;;;;5018418;28;20259;-75
2023/01/07 04:02:35;;;;;;;11.52;10.43;;;8.10;99.90;;;;;;5012889;28;20209;-75
2023/01/07 04:05:01;;;;;;;12.35;11.02;;;8.10;99.90;;;;;;5012810;28;20560;-75
2023/01/07 04:07:26;;;;;;;11.95;10.75;;;8.10;99.90;;;;;;5012985;28;20196;-75
2023/01/07 04:09:52;;;;;;;11.43;10.23;;;8.20;99.90;;;;;;5017981;28;20184;-76
2023/01/07 04:12:18;;;;;;;13.13;11.27;;;8.20;99.90;;;;;;5016769;28;20213;-76
2023/01/07 04:14:43;;;;;;;11.93;10.73;;;8.20;99.90;;;;;;5014786;28;20220;-76
2023/01/07 04:17:09;;;;;;;12.23;11.00;;;8.20;99.90;;;;;;5015279;28;20185;-76
2023/01/07 04:19:37;;;;;;;13.82;11.80;;;8.20;99.90;;;;;;5011952;28;20601;-76
2023/01/07 04:22:04;;;;;;;11.85;10.65;;;8.10;99.90;;;;;;5013950;28;20225;-76
2023/01/07 04:24:29;;;;;;;11.27;10.18;;;8.10;99.90;;;;;;5013847;28;20181;-76
2023/01/07 04:26:55;;;;;;;11.57;10.38;;;8.10;99.90;;;;;;5013590;28;20710;-76
2023/01/07 04:29:21;;;;;;;12.18;11.07;;;8.20;99.90;;;;;;5012465;28;20268;-76
2023/01/07 04:31:46;;;;;;;11.43;10.32;;;8.10;99.90;;;;;;5014521;28;20737;-76
2023/01/07 04:34:12;;;;;;;11.00;9.65;;;8.10;99.90;;;;;;5015937;28;20714;-75
2023/01/07 04:36:37;;;;;;;12.38;11.05;;;8.20;99.90;;;;;;5014352;28;20185;-76
2023/01/07 04:39:03;;;;;;;13.30;11.18;;;8.20;99.90;;;;;;5009608;28;20647;-75
2023/01/07 04:41:29;;;;;;;12.10;10.80;;;8.10;99.90;;;;;;5010864;28;20259;-76
2023/01/07 04:43:54;;;;;;;11.43;10.32;;;8.10;99.90;;;;;;5015250;28;20635;-75
2023/01/07 04:46:20;;;;;;;13.60;11.57;;;8.20;99.90;;;;;;5016473;28;20331;-76
2023/01/07 04:48:45;;;;;;;11.75;10.65;;;8.20;99.90;;;;;;5016238;28;20184;-76
2023/01/07 04:51:11;;;;;;;11.50;10.30;;;8.20;99.90;;;;;;5011290;28;20188;-76
2023/01/07 04:53:36;;;;;;;12.57;11.38;;;8.20;99.90;;;;;;5014333;28;20314;-76
2023/01/07 04:56:05;;;;;;;15.63;11.88;;;8.20;99.90;;;;;;5012669;28;20185;-75
2023/01/07 04:58:30;;;;;;;12.32;11.13;;;8.10;99.90;;;;;;5017063;28;20255;-76
2023/01/07 05:00:58;;;;;;;13.02;11.63;;;8.10;99.90;;;;;;5011506;28;20264;-76
2023/01/07 05:03:24;;;;;;;13.65;11.38;;;8.10;99.90;;;;;;5010119;28;20343;-76
2023/01/07 05:05:50;;;;;;;13.40;10.73;;;8.10;99.90;;;;;;5014836;28;20189;-75
2023/01/07 05:08:16;;;;;;;11.98;10.68;;;8.10;99.90;;;;;;5010706;28;20519;-76
2023/01/07 05:10:41;;;;;;;11.80;10.60;;;8.20;99.90;;;;;;5010533;28;20264;-76
2023/01/07 05:13:13;;;;;;;13.05;11.73;;;8.20;99.90;;;;;;5012452;28;20204;-76
2023/01/07 05:15:38;;;;;;;13.18;11.93;;;8.20;99.90;;;;;;5010583;28;20251;-76
2023/01/07 05:18:04;;;;;;;13.45;12.13;;;8.10;99.90;;;;;;5012339;28;20660;-75
2023/01/07 05:20:29;;;;;;;13.27;11.88;;;8.10;99.90;;;;;;5010529;28;20173;-75
2023/01/07 05:22:55;;;;;;;13.02;11.68;;;8.20;99.90;;;;;;5010893;28;20637;-75
2023/01/07 05:25:21;;;;;;;12.02;10.82;;;8.10;99.90;;;;;;5011453;28;20185;-76
2023/01/07 05:27:46;;;;;;;13.43;12.10;;;8.10;99.90;;;;;;5013204;28;20184;-75
2023/01/07 05:30:12;;;;;;;13.65;12.30;;;8.10;99.90;;;;;;5012031;28;20187;-75
2023/01/07 05:32:37;;;;;;;12.40;11.20;;;8.10;99.90;;;;;;5013427;28;20604;-75
2023/01/07 05:35:03;;;;;;;13.35;11.95;;;8.10;99.90;;;;;;5013658;28;20304;-75
2023/01/07 05:37:29;;;;;;;13.48;12.18;;;8.10;99.90;;;;;;5016663;28;20553;-75
2023/01/07 05:39:55;;;;;;;13.38;11.77;;;8.10;99.90;;;;;;5013273;28;20220;-77
2023/01/07 05:42:20;;;;;;;14.75;12.45;;;8.20;99.90;;;;;;5011310;28;20201;-76
2023/01/07 05:44:46;;;;;;;13.43;12.05;;;8.20;99.90;;;;;;5012020;28;20564;-75
2023/01/07 05:47:11;;;;;;;12.98;11.68;;;8.10;99.90;;;;;;5013555;28;20181;-75
2023/01/07 05:49:37;;;;;;;13.52;12.10;;;8.00;99.90;;;;;;5011377;28;20189;-75
2023/01/07 05:52:03;;;;;;;19.50;11.88;;;8.00;99.90;;;;;;5009398;28;20213;-75
2023/01/07 05:54:28;;;;;;;14.75;13.25;;;7.90;99.90;;;;;;5011977;28;20212;-75
2023/01/07 05:56:54;;;;;;;13.02;11.65;;;7.90;99.90;;;;;;5011654;28;20184;-75
2023/01/07 05:59:19;;;;;;;13.70;12.15;;;7.90;99.90;;;;;;5014266;28;20184;-75
2023/01/07 06:01:45;;;;;;;14.48;12.23;;;7.90;99.90;;;;;;5014543;28;20753;-75
2023/01/07 06:04:11;;;;;;;14.77;13.20;;;7.90;99.90;;;;;;5014615;28;20201;-78
2023/01/07 06:06:36;;;;;;;13.05;11.75;;;7.90;99.90;;;;;;5016852;28;20216;-76
2023/01/07 06:09:02;;;;;;;14.48;12.48;;;7.90;99.90;;;;;;5014933;28;20233;-76
2023/01/07 06:11:28;;;;;;;12.82;11.55;;;7.90;99.90;;;;;;5015880;28;20287;-76
2023/01/07 06:13:53;;;;;;;15.38;12.95;;;7.90;99.90;;;;;;5016183;28;20205;-76
2023/01/07 06:16:19;;;;;;;12.40;11.20;;;7.90;99.90;;;;;;5013715;28;20227;-76
2023/01/07 06:18:45;;;;;;;16.85;12.93;;;7.90;99.90;;;;;;5019250;28;20185;-76
2023/01/07 06:21:10;;;;;;;13.68;12.30;;;8.00;99.90;;;;;;5016916;28;20189;-78
2023/01/07 06:23:36;;;;;;;14.65;12.98;;;8.00;99.90;;;;;;5013879;28;20263;-75
2023/01/07 06:26:02;;;;;;;15.00;12.32;;;8.00;99.90;;;;;;5014779;28;20185;-76
2023/01/07 06:28:28;;;;;;;13.63;12.23;;;8.00;99.90;;;;;;5019019;28;20192;-76
2023/01/07 06:30:53;;;;;;;13.02;11.73;;;8.10;99.90;;;;;;5014191;28;20904;-77
2023/01/07 06:33:19;;;;;;;13.05;11.75;;;8.10;99.90;;;;;;5012753;28;20349;-77
2023/01/07 06:35:45;;;;;;;11.82;10.70;;;8.10;99.90;;;;;;5015715;28;20185;-76
2023/01/07 06:38:11;;;;;;;14.32;11.82;;;8.00;99.90;;;;;;5013406;28;20622;-77
2023/01/07 06:40:37;;;;;;;14.02;12.00;;;8.10;99.90;;;;;;5016634;28;20189;-77
2023/01/07 06:43:02;;;;;;;13.43;12.00;;;8.10;99.90;;;;;;5019531;28;20204;-77
2023/01/07 06:45:29;;;;;;;13.27;11.95;;;8.00;99.90;;;;;;5015236;28;20625;-77
2023/01/07 06:47:56;;;;;;;13.02;11.60;;;8.10;99.90;;;;;;5012397;28;20184;-77
2023/01/07 06:50:21;;;;;;;12.90;11.50;;;8.10;99.90;;;;;;5018742;28;20264;-78
2023/01/07 06:52:47;;;;;;;12.95;11.52;;;8.10;99.90;;;;;;5015236;28;20287;-76
2023/01/07 06:55:13;;;;;;;13.70;11.52;;;8.10;99.90;;;;;;5014929;28;20267;-76
2023/01/07 06:57:38;;;;;;;12.18;10.98;;;8.00;99.90;;;;;;5012381;28;20188;-77
2023/01/07 07:00:05;;;;;;;14.15;12.65;;;8.00;99.90;;;;;;5034925;28;20186;-77
2023/01/07 07:02:30;;;;;;;14.38;11.75;;;7.90;99.90;;;;;;5017501;28;20193;-76
2023/01/07 07:04:56;;;;;;;13.38;12.05;;;7.90;99.90;;;;;;5012903;28;20853;-74
2023/01/07 07:07:22;;;;;;;12.55;11.25;;;7.90;99.90;;;;;;5014553;28;20196;-74
2023/01/07 07:09:49;;;;;;;14.00;10.63;;;8.00;99.90;;;;;;5012332;28;20654;-74
2023/01/07 07:12:16;;;;;;;12.43;11.20;;;7.90;99.90;;;;;;5016080;28;20204;-75
2023/01/07 07:14:41;;;;;;;12.77;11.48;;;7.90;99.90;;;;;;5015267;28;20685;-75
2023/01/07 07:17:07;;;;;;;12.80;11.50;;;8.00;99.90;;;;;;5014168;28;20216;-75
2023/01/07 07:19:33;;;;;;;13.88;11.30;;;8.10;99.90;;;;;;5013965;28;20272;-75
2023/01/07 07:21:59;;;;;;;12.57;11.27;;;8.10;99.90;;;;;;5016691;28;20259;-74
2023/01/07 07:24:24;;;;;;;12.80;11.50;;;8.10;99.90;;;;;;5013924;28;20185;-75
2023/01/07 07:26:51;;;;;;;12.63;11.30;;;8.10;99.90;;;;;;5015410;28;20255;-75
2023/01/07 07:29:16;;;;;;;13.23;11.60;;;8.10;99.90;;;;;;5012544;28;20569;-75
2023/01/07 07:31:42;;;;;;;16.10;12.35;;;8.20;99.90;;;;;;5016039;28;20263;-75
2023/01/07 07:34:09;;;;;;;12.88;11.48;;;8.20;99.90;;;;;;5014232;28;20219;-74
2023/01/07 07:36:35;;;;;;;12.52;11.23;;;8.10;99.90;;;;;;5012245;28;20236;-74
2023/01/07 07:39:00;;;;;;;11.57;10.48;;;8.10;99.90;;;;;;5019051;28;20201;-74
2023/01/07 07:41:26;;;;;;;11.95;10.75;;;8.20;99.90;;;;;;5011339;28;20240;-74
2023/01/07 07:43:52;;;;;;;11.68;10.55;;;8.30;99.90;;;;;;5020150;28;20188;-74
2023/01/07 07:46:17;;;;;;;12.30;10.77;;;8.30;99.90;;;;;;5012351;28;20558;-74
2023/01/07 07:48:43;;;;;;;11.98;10.38;;;8.30;99.90;;;;;;5008419;28;20194;-74
2023/01/07 07:51:08;;;;;;;11.65;10.45;;;8.30;99.90;;;;;;5014750;28;20260;-73
2023/01/07 07:53:34;;;;;;;10.93;9.82;;;8.40;99.90;;;;;;5012577;28;20684;-75
2023/01/07 07:55:59;;;;;;;12.20;10.90;;;8.50;99.90;;;;;;5013065;28;20264;-75
2023/01/07 07:58:25;;;;;;;11.98;10.77;;;8.50;99.90;;;;;;5015100;28;20189;-76
2023/01/07 08:00:52;;;;;;;11.07;10.07;;;8.50;99.90;;;;;;5013864;28;20714;-76
2023/01/07 08:03:17;;;;;;;11.18;10.00;;;8.50;99.90;;;;;;5013453;28;20284;-75
2023/01/07 08:05:44;;;;;;;10.57;9.57;;;8.60;99.90;;;;;;5012738;28;20275;-78
2023/01/07 08:08:12;;;;;;;11.70;10.43;;;8.50;99.90;;;;;;5013786;28;20177;-75
2023/01/07 08:10:38;;;;;;;10.82;9.73;;;8.60;99.90;;;;;;5015706;28;20188;-78
2023/01/07 08:13:04;;;;;;;11.73;10.52;;;8.70;99.90;;;;;;5013695;28;20655;-75
2023/01/07 08:15:29;;;;;;;11.55;10.35;;;8.70;99.90;;;;;;5015645;28;20216;-74
2023/01/07 08:18:04;;;;;;;10.38;9.38;;;8.80;99.90;;;;;;5019334;28;20181;-75
2023/01/07 08:20:30;;;;;;;10.15;9.07;;;8.80;99.90;;;;;;5011777;28;20204;-74
2023/01/07 08:23:03;;;;;;;9.63;8.63;;;8.80;99.90;;;;;;5013908;28;20205;-75
2023/01/07 08:25:30;;;;;;;10.55;9.55;;;8.90;99.90;;;;;;5016036;28;20177;-74
2023/01/07 08:27:57;;;;;;;11.35;10.25;;;8.80;99.90;;;;;;5013154;28;20645;-75
2023/01/07 08:30:24;;;;;;;11.18;10.15;;;8.80;99.90;;;;;;5012894;28;20892;-76
2023/01/07 08:32:50;;;;;;;10.13;9.20;;;8.90;99.90;;;;;;5012270;28;20208;-75
2023/01/07 08:35:15;;;;;;;10.50;9.48;;;8.90;99.90;;;;;;5012790;28;20193;-75
2023/01/07 08:37:42;;;;;;;9.70;8.85;;;8.90;99.90;;;;;;5012449;28;20221;-76
2023/01/07 08:40:08;;;;;;;10.35;9.35;;;9.00;99.90;;;;;;5011887;28;20177;-76
2023/01/07 08:42:34;;;;;;;10.35;9.35;;;9.10;99.90;;;;;;5012538;28;20197;-76
2023/01/07 08:45:00;;;;;;;12.40;10.05;;;9.10;99.90;;;;;;5019368;28;20177;-76
2023/01/07 08:47:26;;;;;;;9.88;8.93;;;9.20;99.90;;;;;;5011065;28;20238;-75
2023/01/07 08:49:56;;;;;;;9.77;8.88;;;9.20;99.90;;;;;;5013933;28;20276;-75
2023/01/07 08:52:23;;;;;;;9.50;8.70;;;9.30;99.90;;;;;;5013806;28;20212;-75
2023/01/07 08:54:49;;;;;;;10.48;9.48;;;9.40;99.90;;;;;;5009276;28;20749;-75
2023/01/07 08:57:16;;;;;;;9.18;8.40;;;9.50;99.90;;;;;;5014356;28;20252;-75
2023/01/07 08:59:42;;;;;;;9.35;8.55;;;9.60;99.90;;;;;;5011975;28;20180;-75
2023/01/07 09:02:16;;;;;;;9.13;8.32;;;9.50;99.90;;;;;;5014434;28;20258;-75
2023/01/07 09:04:42;;;;;;;10.13;9.20;;;9.50;99.90;;;;;;5011319;28;20203;-75
2023/01/07 09:07:08;;;;;;;9.05;8.13;;;9.70;99.90;;;;;;5013513;28;20648;-75
2023/01/07 09:09:34;;;;;;;9.20;8.40;;;9.70;99.90;;;;;;5010898;28;20192;-75
2023/01/07 09:12:00;;;;;;;9.82;8.93;;;9.80;99.90;;;;;;5011999;28;20255;-75
2023/01/07 09:14:26;;;;;;;9.80;8.90;;;9.90;99.90;;;;;;5013296;28;20201;-76
2023/01/07 09:16:51;;;;;;;10.15;9.25;;;10.00;99.90;;;;;;5011885;28;20196;-76
2023/01/07 09:19:17;;;;;;;9.32;8.40;;;10.00;99.90;;;;;;5017872;28;20217;-76
2023/01/07 09:21:42;;;;;;;9.50;8.55;;;10.10;99.90;;;;;;5012239;28;20193;-76
2023/01/07 09:24:08;;;;;;;9.07;8.38;;;10.30;99.90;;;;;;5011488;28;20189;-75
2023/01/07 09:26:33;;;;;;;9.70;8.70;;;10.30;99.90;;;;;;5011393;28;20181;-75
2023/01/07 09:28:59;;;;;;;8.50;7.65;;;10.40;99.90;;;;;;5010703;28;20189;-75
2023/01/07 09:31:25;;;;;;;9.23;8.43;;;10.50;99.90;;;;;;5010027;28;20181;-75
2023/01/07 09:33:50;;;;;;;8.98;7.22;;;10.70;99.90;;;;;;5015556;28;20220;-75
2023/01/07 09:36:16;;;;;;;8.35;7.55;;;10.90;99.90;;;;;;5016609;28;20176;-74
2023/01/07 09:38:41;;;;;;;8.23;7.53;;;11.00;99.90;;;;;;5016103;28;20203;-78
2023/01/07 09:41:43;;;;;;;8.02;7.22;;;11.10;99.90;;;;;;5024135;28;20200;-76
2023/01/07 09:44:19;;;;;;;7.95;7.25;;;11.40;99.90;;;;;;5012615;28;20176;-80
2023/01/07 09:46:47;;;;;;;7.88;7.18;;;12.20;99.90;;;;;;5015609;28;20716;-76
2023/01/07 09:49:17;;;;;;;7.25;6.55;;;13.10;99.90;;;;;;5012714;28;20180;-77
2023/01/07 09:51:52;;;;;;;6.43;5.93;;;13.70;99.90;;;;;;5017068;28;20197;-77
2023/01/07 09:54:36;;;;;;;7.40;6.70;;;14.00;99.90;;;;;;5014655;28;20196;-77
2023/01/07 09:57:03;;;;;;;6.38;5.78;;;15.30;99.90;;;;;;5014645;28;20247;-76
2023/01/07 09:59:28;;;;;;;5.78;5.38;;;15.80;99.90;;;;;;5015082;28;20181;-76
2023/01/07 10:02:13;;;;;;;6.10;5.60;;;16.60;99.90;;;;;;5016762;28;20277;-76
2023/01/07 10:05:07;;;;;;;5.72;5.30;;;18.10;99.90;;;;;;5012073;28;20261;-76
2023/01/07 10:08:08;;;;;;;5.20;4.80;;;20.00;99.90;;;;;;5029420;28;20205;-76
2023/01/07 10:10:45;;;;;;;5.45;4.95;;;21.50;99.90;;;;;;5028862;28;20221;-77
2023/01/07 10:13:51;;;;;;;5.65;5.13;;;22.50;94.70;;;;;;5016354;28;20227;-77
2023/01/07 10:16:35;;;;;;;5.32;5.03;;;23.50;90.80;;;;;;5013291;28;20517;-76
2023/01/07 10:19:46;;;;;;;5.10;4.70;;;24.50;85.00;;;;;;5013254;28;20177;-76
2023/01/07 10:22:22;;;;;;;5.15;4.75;;;25.40;78.40;;;;;;5006594;28;20212;-76
2023/01/07 10:24:55;;;;;;;5.18;4.82;;;26.00;74.00;;;;;;5009173;28;20268;-76
2023/01/07 10:27:36;;;;;;;4.68;4.35;;;26.10;71.30;;;;;;5015568;28;20202;-76
2023/01/07 10:30:05;;;;;;;4.65;4.35;;;26.50;68.90;;;;;;5012488;28;20699;-76
2023/01/07 10:32:35;;;;;;;4.53;4.22;;;26.80;67.20;;;;;;5014122;28;20228;-76
2023/01/07 10:35:02;;;;;;;5.13;4.72;;;27.30;65.80;;;;;;5016192;28;20213;-76
2023/01/07 10:37:36;;;;;;;4.90;4.57;;;27.80;62.30;;;;;;5012791;28;20173;-79
2023/01/07 10:40:41;;;;;;;4.82;4.43;;;27.60;61.90;;;;;;5014801;28;20188;-76
2023/01/07 10:43:29;;;;;;;4.50;4.20;;;27.60;61.50;;;;;;5010468;28;20209;-76
2023/01/07 10:45:58;;;;;;;4.38;4.05;;;28.10;59.20;;;;;;5013978;28;20268;-76
2023/01/07 10:48:36;;;;;;;3.60;3.40;;;28.50;58.10;;;;;;5012734;28;20537;-76
2023/01/07 10:51:10;;;;;;;3.58;3.28;;;28.80;57.30;;;;;;5016018;28;20424;-76
2023/01/07 10:53:55;;;;;;;3.25;3.05;;;29.20;55.90;;;;;;5011624;28;20216;-76
2023/01/07 10:56:29;;;;;;;3.60;3.30;;;29.70;55.30;;;;;;5027864;28;20188;-76
2023/01/07 10:58:55;;;;;;;3.40;3.10;;;30.30;54.10;;;;;;5011834;28;20177;-76
2023/01/07 11:01:27;;;;;;;3.53;3.30;;;30.50;53.10;;;;;;5014768;28;20184;-76
2023/01/07 11:03:56;;;;;;;3.47;3.20;;;30.40;53.20;;;;;;5007728;28;20265;-76
2023/01/07 11:06:43;;;;;;;3.58;3.38;;;30.50;53.00;;;;;;5015565;28;20714;-76
2023/01/07 11:09:30;;;;;;;3.25;3.05;;;30.80;51.70;;;;;;5013843;28;20188;-74
2023/01/07 11:12:00;;;;;;;3.50;3.20;;;30.80;51.90;;;;;;5011192;28;20215;-74
2023/01/07 11:14:34;;;;;;;3.80;3.60;;;29.40;52.50;;;;;;5012626;28;20223;-76
2023/01/07 11:17:12;;;;;;;3.60;3.40;;;27.20;55.80;;;;;;5010907;28;20272;-76
2023/01/07 11:19:47;;;;;;;2.95;2.85;;;25.90;58.10;;;;;;5011810;28;20201;-76
2023/01/07 11:22:25;;;;;;;3.58;3.17;;;25.10;58.30;;;;;;5013411;28;20199;-76
2023/01/07 11:24:55;;;;;;;3.60;3.40;;;23.20;62.30;;;;;;5017187;28;20181;-77
2023/01/07 11:27:24;;;;;;;2.97;2.88;;;22.10;64.80;;;;;;5014798;28;20621;-76
2023/01/07 11:30:25;;;;;;;3.20;2.90;;;21.10;67.70;;;;;;5017743;28;20654;-76
2023/01/07 11:33:31;;;;;;;3.05;2.78;;;20.10;70.30;;;;;;5012170;28;20675;-76
2023/01/07 11:35:57;;;;;;;2.92;2.83;;;19.40;72.70;;;;;;4995578;28;20319;-77
2023/01/07 11:38:32;;;;;;;2.88;2.70;;;19.40;73.90;;;;;;5014973;28;20182;-76
2023/01/07 11:40:59;;;;;;;2.80;2.60;;;21.20;71.00;;;;;;5014781;28;20173;-77
2023/01/07 11:43:31;;;;;;;2.50;2.40;;;22.10;67.30;;;;;;5011230;28;20288;-77
2023/01/07 11:46:00;;;;;;;3.15;2.95;;;22.40;65.20;;;;;;5010167;28;20177;-77
2023/01/07 11:48:30;;;;;;;3.08;2.88;;;21.60;66.60;;;;;;5013271;28;20184;-77
2023/01/07 11:50:59;;;;;;;2.67;2.58;;;20.70;68.20;;;;;;5016038;28;20181;-77
2023/01/07 11:53:49;;;;;;;3.35;3.15;;;20.10;70.60;;;;;;5015789;28;20205;-79
2023/01/07 11:56:32;;;;;;;4.43;3.00;;;19.30;72.60;;;;;;5023968;28;20181;-79
2023/01/07 11:59:18;;;;;;;3.10;2.90;;;18.60;74.40;;;;;;5022275;28;20227;-78
2023/01/07 12:01:47;;;;;;;3.22;3.03;;;18.20;76.00;;;;;;5031601;28;20201;-79
2023/01/07 12:04:35;;;;;;;3.05;2.85;;;17.90;77.40;;;;;;5022868;28;20189;-81
2023/01/07 12:07:05;;;;;;;3.17;2.97;;;17.50;79.30;;;;;;5033144;28;20243;-78
2023/01/07 12:09:30;;;;;;;3.35;3.08;;;17.20;79.40;;;;;;5013813;28;20560;-78
2023/01/07 12:11:58;;;;;;;3.33;3.13;;;16.90;80.20;;;;;;5015468;28;20280;-79
2023/01/07 12:14:33;;;;;;;3.35;3.15;;;16.80;81.60;;;;;;5016468;28;20259;-79
2023/01/07 12:17:10;;;;;;;2.88;2.78;;;17.50;80.30;;;;;;5011395;28;20538;-78
2023/01/07 12:19:54;;;;;;;3.22;3.05;;;17.40;80.50;;;;;;5012890;28;20168;-78
2023/01/07 12:23:03;;;;;;;3.70;3.35;;;17.10;81.30;;;;;;5011297;28;20197;-78
2023/01/07 12:25:44;;;;;;;3.08;2.97;;;16.80;82.50;;;;;;5012217;28;20228;-78
2023/01/07 12:28:18;;;;;;;3.70;3.40;;;16.70;84.20;;;;;;5010967;28;20188;-78
2023/01/07 12:31:07;;;;;;;3.00;2.90;;;16.90;83.70;;;;;;5009184;28;20184;-78
2023/01/07 12:33:50;;;;;;;3.05;2.85;;;16.60;83.90;;;;;;5010746;28;20226;-78
2023/01/07 12:36:45;;;;;;;2.90;2.70;;;17.90;83.80;;;;;;5016175;28;20184;-78
2023/01/07 12:39:36;;;;;;;3.30;3.10;;;21.00;76.00;;;;;;5010806;28;20181;-78
2023/01/07 12:42:15;;;;;;;3.40;3.20;;;22.60;69.10;;;;;;5011054;28;20221;-78
2023/01/07 12:44:48;;;;;;;3.60;3.30;;;22.10;68.60;;;;;;5011903;28;20216;-77
2023/01/07 12:47:19;;;;;;;3.33;3.13;;;21.30;70.30;;;;;;5014808;28;20242;-78
2023/01/07 12:49:51;;;;;;;3.20;3.00;;;20.60;71.60;;;;;;5014020;28;20181;-78
2023/01/07 12:52:27;;;;;;;3.35;3.13;;;20.60;73.10;;;;;;5016415;28;20200;-78
2023/01/07 12:55:00;;;;;;;2.97;2.78;;;21.30;71.90;;;;;;5012170;28;20218;-79
2023/01/07 12:57:54;;;;;;;2.75;2.65;;;22.40;70.20;;;;;;5009429;28;20641;-78
2023/01/07 13:00:26;;;;;;;3.15;2.95;;;22.70;67.10;;;;;;5026135;28;20173;-78
2023/01/07 13:03:29;;;;;;;3.67;3.45;;;22.10;68.00;;;;;;5012181;28;20208;-77